Oslo, Minnesota
Current Conditions -  °F | °C
As of 2:53 AM on Saturday 25 Oct 2014 (Local Time) from KGFK Reporting Station
Clear Clear  
Wind Chill: 38°   Ceiling: Unl
Heat Index: 43°   Visibility: 10mi
Dew Point: 34°   Wind: 8mph
Humidity: 71%   Direction: 270°W
Pressure: 29.96"   Gusts: NA
Location:  48.2°N, 97.13°W
Report Text: KGFK 250753Z AUTO 27007KT 10SM CLR 06/01 A2996 RMK AO2 SLP147 T00610011 TSNO
Loading
Personal Weather Stations






























Interactive Weather Map
Tropical Storm Tracking
New forecast layout! Learn more

10-Day Weather Forecast

Advertisements
Track Severe Weather on mobile